Time;durP1;ratioP1;P1;durP2;ratioP2;P2;SDS_P1;SDS_P2;PMS_P1;PMS_P2;Temp;Humidity;BMP_temperature;BMP_pressure;BME280_temperature;BME280_humidity;BME280_pressure;Samples;Min_cycle;Max_cycle;Signal;HPM_P1;HPM_P2
2023/09/13 00:02:26;;;;;;;7.33;6.77;;;25.40;47.60;;;;;;20805;6816;119951;-77
2023/09/13 00:04:54;;;;;;;7.95;7.35;;;25.40;47.60;;;;;;20587;6816;336062;-77
2023/09/13 00:07:18;;;;;;;7.40;6.90;;;25.50;48.20;;;;;;20793;6816;117242;-77
2023/09/13 00:09:43;;;;;;;7.13;6.63;;;25.30;48.60;;;;;;20807;6814;120291;-77
2023/09/13 00:12:08;;;;;;;7.30;6.43;;;25.00;49.20;;;;;;20795;6815;122105;-77
2023/09/13 00:14:35;;;;;;;7.95;7.25;;;24.70;50.00;;;;;;20583;6815;312474;-77
2023/09/13 00:17:02;;;;;;;8.30;7.70;;;24.80;51.40;;;;;;20584;6816;307066;-77
2023/09/13 00:19:27;;;;;;;9.02;8.15;;;25.20;51.40;;;;;;20590;6816;308728;-76
2023/09/13 00:21:53;;;;;;;8.43;7.63;;;25.40;51.60;;;;;;20584;6816;280581;-76
2023/09/13 00:24:18;;;;;;;8.20;7.50;;;25.50;51.70;;;;;;20554;6816;336944;-76
2023/09/13 00:26:44;;;;;;;7.97;7.17;;;25.60;51.40;;;;;;20796;6816;119697;-77
2023/09/13 00:29:09;;;;;;;8.60;8.00;;;25.30;51.50;;;;;;20591;6816;278252;-76
2023/09/13 00:31:35;;;;;;;9.67;8.77;;;25.20;51.70;;;;;;20591;6816;305576;-76
2023/09/13 00:34:01;;;;;;;7.63;7.07;;;25.20;51.80;;;;;;20779;6816;121163;-79
2023/09/13 00:36:26;;;;;;;9.40;8.70;;;24.80;52.10;;;;;;20597;6816;307839;-76
2023/09/13 00:38:52;;;;;;;8.77;7.73;;;24.60;53.60;;;;;;20792;6816;117637;-76
2023/09/13 00:41:17;;;;;;;9.75;8.85;;;24.20;53.70;;;;;;20596;6816;282914;-76
2023/09/13 00:43:44;;;;;;;8.63;7.83;;;23.80;55.20;;;;;;20799;6816;118254;-76
2023/09/13 00:46:09;;;;;;;9.52;8.63;;;23.80;55.20;;;;;;20573;6816;278441;-77
2023/09/13 00:48:35;;;;;;;8.80;7.90;;;23.80;56.80;;;;;;20592;6816;307011;-76
2023/09/13 00:51:02;;;;;;;7.57;6.83;;;23.80;56.10;;;;;;20810;6816;119842;-76
2023/09/13 00:53:29;;;;;;;7.63;7.13;;;23.50;56.40;;;;;;20827;6816;117262;-75
2023/09/13 00:55:57;;;;;;;7.27;6.77;;;23.40;56.30;;;;;;20823;6816;117345;-76
2023/09/13 00:58:22;;;;;;;9.30;8.52;;;23.20;56.50;;;;;;20598;6816;307555;-77
2023/09/13 01:00:49;;;;;;;8.40;7.80;;;23.30;57.80;;;;;;20815;6816;117610;-77
2023/09/13 01:03:15;;;;;;;8.70;8.10;;;23.30;57.40;;;;;;20813;6816;117265;-76
2023/09/13 01:05:40;;;;;;;7.70;7.30;;;23.10;57.50;;;;;;20812;6816;120679;-77
2023/09/13 01:08:06;;;;;;;10.40;9.40;;;23.00;58.00;;;;;;20580;6816;307029;-77
2023/09/13 01:10:32;;;;;;;9.35;8.52;;;23.20;58.80;;;;;;20806;6816;122895;-77
2023/09/13 01:12:58;;;;;;;8.77;8.07;;;23.20;58.80;;;;;;20800;6816;120027;-76
2023/09/13 01:15:23;;;;;;;8.33;7.83;;;23.10;59.00;;;;;;20804;6816;121169;-76
2023/09/13 01:17:49;;;;;;;10.87;9.87;;;22.90;59.20;;;;;;20579;6816;307701;-76
2023/09/13 01:20:20;;;;;;;9.67;8.87;;;23.10;59.70;;;;;;20775;6814;120313;-76
2023/09/13 01:23:09;;;;;;;11.30;10.50;;;23.20;59.20;;;;;;20554;6815;281492;-77
2023/09/13 01:25:41;;;;;;;10.30;9.43;;;23.40;59.90;;;;;;20606;6815;277772;-76
2023/09/13 01:28:11;;;;;;;9.80;9.00;;;24.00;57.90;;;;;;20568;6816;308930;-76
2023/09/13 01:30:36;;;;;;;8.53;7.90;;;24.00;57.90;;;;;;20597;6816;117217;-76
2023/09/13 01:33:02;;;;;;;9.13;8.43;;;23.90;57.70;;;;;;20580;6816;324936;-76
2023/09/13 01:35:27;;;;;;;9.23;8.33;;;23.90;57.30;;;;;;20811;6816;117237;-76
2023/09/13 01:37:53;;;;;;;9.07;8.20;;;23.70;57.30;;;;;;20808;6816;117100;-76
2023/09/13 01:40:18;;;;;;;7.73;7.03;;;23.50;57.80;;;;;;20781;6816;123929;-76
2023/09/13 01:42:45;;;;;;;8.50;7.80;;;23.30;58.00;;;;;;20792;6816;117215;-77
2023/09/13 01:45:10;;;;;;;9.18;8.57;;;23.10;58.20;;;;;;20579;6816;282154;-76
2023/09/13 01:47:35;;;;;;;8.47;7.97;;;23.30;58.80;;;;;;20790;6816;118154;-76
2023/09/13 01:50:01;;;;;;;10.13;9.23;;;23.30;58.40;;;;;;20554;6816;307148;-76
2023/09/13 01:52:26;;;;;;;9.70;8.90;;;23.50;58.70;;;;;;20585;6816;306577;-76
2023/09/13 01:54:52;;;;;;;9.33;8.70;;;23.80;57.90;;;;;;20580;6816;307421;-76
2023/09/13 01:57:19;;;;;;;9.23;8.63;;;24.00;56.60;;;;;;20578;6816;309625;-77
2023/09/13 01:59:44;;;;;;;8.13;7.63;;;24.20;56.30;;;;;;20784;6816;117150;-76
2023/09/13 02:02:10;;;;;;;8.20;7.20;;;24.00;56.40;;;;;;20796;6816;120271;-76
2023/09/13 02:04:36;;;;;;;8.33;7.73;;;23.60;56.80;;;;;;20807;6816;117902;-76
2023/09/13 02:07:02;;;;;;;9.55;8.85;;;23.40;57.30;;;;;;20588;6816;281808;-76
2023/09/13 02:09:27;;;;;;;10.03;9.33;;;23.50;58.00;;;;;;20585;6816;277574;-76
2023/09/13 02:11:53;;;;;;;10.33;9.63;;;23.90;57.50;;;;;;20592;6816;278167;-76
2023/09/13 02:14:19;;;;;;;9.73;8.93;;;23.90;57.40;;;;;;20775;6816;121020;-76
2023/09/13 02:16:46;;;;;;;10.85;10.10;;;23.70;57.50;;;;;;20585;6816;313550;-76
2023/09/13 02:19:11;;;;;;;9.37;8.47;;;23.70;58.20;;;;;;20798;6816;120653;-76
2023/09/13 02:21:37;;;;;;;10.27;9.47;;;23.50;58.30;;;;;;20586;6816;336498;-76
2023/09/13 02:24:02;;;;;;;10.03;9.33;;;23.50;58.80;;;;;;20783;6816;120076;-76
2023/09/13 02:26:28;;;;;;;11.00;10.00;;;23.40;58.80;;;;;;20578;6816;277534;-76
2023/09/13 02:28:54;;;;;;;10.68;9.95;;;23.40;59.00;;;;;;20572;6816;336973;-76
2023/09/13 02:31:23;;;;;;;11.10;10.30;;;23.80;58.80;;;;;;20572;6816;311077;-76
2023/09/13 02:33:49;;;;;;;11.17;10.20;;;23.80;58.80;;;;;;20560;6814;312461;-76
2023/09/13 02:36:14;;;;;;;9.57;8.68;;;23.90;58.40;;;;;;20765;6815;117877;-77
2023/09/13 02:38:41;;;;;;;9.40;8.60;;;23.70;58.50;;;;;;20790;6816;117351;-77
2023/09/13 02:41:07;;;;;;;11.07;10.27;;;23.30;59.10;;;;;;20574;6816;307313;-76
2023/09/13 02:43:32;;;;;;;10.13;9.47;;;23.40;59.80;;;;;;20778;6816;117808;-76
2023/09/13 02:45:58;;;;;;;10.40;9.70;;;23.30;59.70;;;;;;20501;6816;278850;-77
2023/09/13 02:48:25;;;;;;;10.83;10.13;;;23.40;59.10;;;;;;20568;6816;307047;-76
2023/09/13 02:50:49;;;;;;;9.48;8.88;;;23.60;58.50;;;;;;20570;6816;279241;-76
2023/09/13 02:53:15;;;;;;;10.13;9.43;;;23.90;58.20;;;;;;20566;6816;306661;-76
2023/09/13 02:55:41;;;;;;;9.07;8.30;;;23.80;57.60;;;;;;20789;6816;117360;-76
2023/09/13 02:58:08;;;;;;;9.03;8.40;;;23.80;57.60;;;;;;20754;6816;117997;-76
2023/09/13 03:00:32;;;;;;;9.50;8.90;;;23.50;58.10;;;;;;20373;6816;307359;-78
2023/09/13 03:02:58;;;;;;;9.70;9.10;;;23.60;57.90;;;;;;20512;6816;310622;-76
2023/09/13 03:05:24;;;;;;;8.80;8.20;;;23.90;57.80;;;;;;20751;6816;117190;-77
2023/09/13 03:07:49;;;;;;;9.57;8.73;;;23.80;57.80;;;;;;20781;6816;117215;-76
2023/09/13 03:10:15;;;;;;;10.68;9.95;;;23.50;58.10;;;;;;20539;6816;307058;-79
2023/09/13 03:12:40;;;;;;;10.70;9.88;;;23.50;58.50;;;;;;20553;6816;336995;-76
2023/09/13 03:15:06;;;;;;;10.63;10.00;;;23.70;57.80;;;;;;20563;6816;280454;-76
2023/09/13 03:17:33;;;;;;;10.23;9.43;;;23.90;57.70;;;;;;20493;6816;283626;-77
2023/09/13 03:19:58;;;;;;;10.40;9.80;;;24.00;57.40;;;;;;20469;6816;307425;-79
2023/09/13 03:22:24;;;;;;;10.50;9.70;;;24.10;56.90;;;;;;20493;6816;339658;-78
2023/09/13 03:24:50;;;;;;;10.43;9.73;;;24.20;56.70;;;;;;20513;6816;290042;-77
2023/09/13 03:27:17;;;;;;;9.43;8.73;;;24.20;56.40;;;;;;20720;6816;121770;-77
2023/09/13 03:29:42;;;;;;;10.30;9.50;;;24.00;56.20;;;;;;20504;6816;281658;-78
2023/09/13 03:32:08;;;;;;;9.90;9.10;;;23.90;57.20;;;;;;20507;6816;277997;-78
2023/09/13 03:34:35;;;;;;;9.25;8.65;;;24.10;56.30;;;;;;20565;6816;278366;-79
2023/09/13 03:36:59;;;;;;;9.77;9.17;;;24.10;56.30;;;;;;20574;6816;277614;-78
2023/09/13 03:39:28;;;;;;;8.53;7.83;;;24.20;56.20;;;;;;20792;6816;117429;-78
2023/09/13 03:41:54;;;;;;;10.20;9.40;;;23.90;56.50;;;;;;20591;6816;319574;-78
2023/09/13 03:44:19;;;;;;;10.75;9.95;;;23.80;56.80;;;;;;20577;6814;310062;-79
2023/09/13 03:46:45;;;;;;;10.30;9.60;;;23.90;56.80;;;;;;20607;6815;293615;-79
2023/09/13 03:49:12;;;;;;;10.10;9.40;;;24.00;56.90;;;;;;20604;6815;281190;-78
2023/09/13 03:51:37;;;;;;;8.27;7.73;;;24.10;56.80;;;;;;20815;6816;117944;-79
2023/09/13 03:54:03;;;;;;;9.77;9.10;;;23.80;57.00;;;;;;20585;6816;315425;-77
2023/09/13 03:56:30;;;;;;;9.10;8.50;;;23.60;57.30;;;;;;20828;6815;121481;-78
2023/09/13 03:58:56;;;;;;;8.10;7.60;;;23.60;57.30;;;;;;20836;6816;118058;-79
2023/09/13 04:01:21;;;;;;;10.03;7.67;;;23.30;57.80;;;;;;20836;6816;117087;-78
2023/09/13 04:03:47;;;;;;;9.50;8.80;;;23.00;58.20;;;;;;20600;6816;307075;-78
2023/09/13 04:06:12;;;;;;;9.87;9.00;;;23.20;58.30;;;;;;20601;6816;278049;-79
2023/09/13 04:08:38;;;;;;;8.40;7.62;;;23.50;57.60;;;;;;20837;6816;67278;-79
2023/09/13 04:11:04;;;;;;;9.40;8.80;;;23.30;57.50;;;;;;20621;6816;306408;-79
2023/09/13 04:13:30;;;;;;;7.90;7.50;;;23.40;57.20;;;;;;20835;6816;116632;-79
2023/09/13 04:15:55;;;;;;;8.50;7.90;;;23.20;57.30;;;;;;20827;6816;117062;-79
2023/09/13 04:18:20;;;;;;;7.70;7.20;;;22.90;57.70;;;;;;20819;6816;119016;-79
2023/09/13 04:20:49;;;;;;;7.70;7.30;;;22.60;58.20;;;;;;20834;6816;118069;-79
2023/09/13 04:23:15;;;;;;;8.20;7.70;;;22.40;58.60;;;;;;20835;6816;117186;-79
2023/09/13 04:25:40;;;;;;;9.57;8.97;;;22.20;59.00;;;;;;20621;6816;328623;-79
2023/09/13 04:28:06;;;;;;;10.07;9.27;;;22.40;59.30;;;;;;20609;6816;278015;-80
2023/09/13 04:30:33;;;;;;;8.87;8.17;;;22.80;58.60;;;;;;20820;6816;117006;-79
2023/09/13 04:32:58;;;;;;;9.13;8.53;;;22.70;58.40;;;;;;20571;6816;307830;-78
2023/09/13 04:35:25;;;;;;;9.70;9.00;;;23.00;57.80;;;;;;20596;6816;277050;-78
2023/09/13 04:37:53;;;;;;;9.77;9.13;;;23.30;57.50;;;;;;20620;6816;313865;-80
2023/09/13 04:40:18;;;;;;;9.77;9.00;;;23.20;57.40;;;;;;20583;6816;278033;-81
2023/09/13 04:42:55;;;;;;;9.50;8.90;;;23.40;57.20;;;;;;20606;6816;310567;-79
2023/09/13 04:45:22;;;;;;;8.90;8.40;;;23.40;57.00;;;;;;20720;6816;121741;-81
2023/09/13 04:47:47;;;;;;;8.47;7.77;;;23.20;57.30;;;;;;20812;6816;117206;-79
2023/09/13 04:50:13;;;;;;;8.00;7.30;;;22.80;58.00;;;;;;20797;6816;117411;-84
2023/09/13 04:52:38;;;;;;;8.87;8.27;;;22.40;58.40;;;;;;20606;6816;306896;-80
2023/09/13 04:55:05;;;;;;;9.15;8.55;;;22.60;58.60;;;;;;20587;6814;341431;-80
2023/09/13 04:57:32;;;;;;;8.67;8.17;;;23.10;57.40;;;;;;20569;6815;277105;-78
2023/09/13 04:59:58;;;;;;;9.20;8.50;;;23.10;57.40;;;;;;20580;6815;335973;-79
2023/09/13 05:02:23;;;;;;;8.52;7.80;;;23.30;57.00;;;;;;20837;6816;117263;-77
2023/09/13 05:04:50;;;;;;;7.87;7.27;;;23.00;57.20;;;;;;20832;6816;117107;-81
2023/09/13 05:07:16;;;;;;;7.70;7.07;;;22.70;58.00;;;;;;20838;6816;116880;-79
2023/09/13 05:09:41;;;;;;;8.90;8.27;;;22.50;58.50;;;;;;20618;6816;320150;-80
2023/09/13 05:12:07;;;;;;;8.80;7.97;;;22.70;58.30;;;;;;20812;6816;120553;-80
2023/09/13 05:14:36;;;;;;;7.80;7.40;;;22.50;58.60;;;;;;20833;6816;117506;-79
2023/09/13 05:16:59;;;;;;;8.27;7.67;;;22.40;58.50;;;;;;20833;6816;117577;-82
2023/09/13 05:19:24;;;;;;;7.97;7.37;;;22.30;58.90;;;;;;20817;6816;116549;-80
2023/09/13 05:21:51;;;;;;;8.60;8.00;;;22.20;59.10;;;;;;20839;6816;117184;-79
2023/09/13 05:24:16;;;;;;;8.57;7.97;;;22.10;59.50;;;;;;20786;6816;120633;-79
2023/09/13 05:26:44;;;;;;;10.00;9.38;;;22.00;59.80;;;;;;20598;6816;280381;-79
2023/09/13 05:29:10;;;;;;;9.93;9.32;;;22.30;60.20;;;;;;20568;6816;282267;-75
2023/09/13 05:31:36;;;;;;;9.13;8.37;;;22.80;59.60;;;;;;20794;6816;121000;-78
2023/09/13 05:34:01;;;;;;;9.82;9.07;;;22.80;59.30;;;;;;20572;6816;307489;-74
2023/09/13 05:36:27;;;;;;;9.98;9.27;;;23.00;58.90;;;;;;20578;6816;336073;-76
2023/09/13 05:38:54;;;;;;;9.57;8.87;;;23.40;58.30;;;;;;20594;6816;277623;-77
2023/09/13 05:41:20;;;;;;;7.70;7.30;;;23.60;57.70;;;;;;20798;6816;117240;-75
2023/09/13 05:43:45;;;;;;;8.07;7.57;;;23.50;57.80;;;;;;20796;6816;117627;-77
2023/09/13 05:46:11;;;;;;;9.03;8.33;;;23.30;58.30;;;;;;20564;6816;278075;-76
2023/09/13 05:48:36;;;;;;;8.43;7.83;;;23.40;58.10;;;;;;20799;6816;117770;-76
2023/09/13 05:51:04;;;;;;;8.65;7.75;;;23.40;58.10;;;;;;20799;6816;117657;-79
2023/09/13 05:53:29;;;;;;;7.83;7.30;;;23.20;58.30;;;;;;20815;6816;118490;-77
2023/09/13 05:55:54;;;;;;;8.30;7.67;;;23.00;58.70;;;;;;20810;6816;117225;-76
2023/09/13 05:58:20;;;;;;;9.37;8.80;;;22.90;59.10;;;;;;20569;6816;312235;-76
2023/09/13 06:00:46;;;;;;;7.77;7.27;;;23.10;59.10;;;;;;20805;6816;117478;-79
2023/09/13 06:03:11;;;;;;;8.27;7.77;;;23.20;58.90;;;;;;20794;6816;117509;-79
2023/09/13 06:05:37;;;;;;;8.10;7.50;;;23.10;59.10;;;;;;20800;6816;123492;-76
2023/09/13 06:08:02;;;;;;;10.53;9.73;;;22.90;59.30;;;;;;20547;6814;277549;-76
2023/09/13 06:10:29;;;;;;;9.40;8.80;;;23.50;59.10;;;;;;20597;6815;308059;-76
2023/09/13 06:12:54;;;;;;;8.73;8.23;;;23.50;59.10;;;;;;20592;6815;295712;-76
2023/09/13 06:15:20;;;;;;;8.33;7.67;;;23.80;58.80;;;;;;20806;6816;121171;-76
2023/09/13 06:17:46;;;;;;;8.17;7.47;;;23.70;58.20;;;;;;20705;6816;117330;-76
2023/09/13 06:20:12;;;;;;;9.50;8.77;;;23.60;59.00;;;;;;20558;6816;336904;-77
2023/09/13 06:22:38;;;;;;;8.40;7.80;;;23.60;58.90;;;;;;20749;6816;117619;-77
2023/09/13 06:25:04;;;;;;;9.33;8.80;;;23.50;58.90;;;;;;20562;6816;336474;-80
2023/09/13 06:27:29;;;;;;;9.50;8.80;;;23.60;59.10;;;;;;20571;6816;278018;-76
2023/09/13 06:29:55;;;;;;;9.52;8.82;;;23.90;58.20;;;;;;20580;6816;310742;-76
2023/09/13 06:32:20;;;;;;;8.37;7.77;;;24.10;57.50;;;;;;20774;6816;117792;-76
2023/09/13 06:34:46;;;;;;;9.23;8.52;;;24.00;57.70;;;;;;20577;6816;307459;-76
2023/09/13 06:37:12;;;;;;;8.43;7.82;;;24.00;58.00;;;;;;20588;6816;307048;-75
2023/09/13 06:39:37;;;;;;;9.75;9.05;;;24.30;57.80;;;;;;20588;6816;311493;-75
2023/09/13 06:42:03;;;;;;;8.33;7.77;;;24.50;57.50;;;;;;20788;6816;117921;-75
2023/09/13 06:44:28;;;;;;;9.10;8.50;;;24.30;57.60;;;;;;20588;6816;307081;-76
2023/09/13 06:46:54;;;;;;;9.70;9.10;;;24.40;57.80;;;;;;20592;6816;340293;-76
2023/09/13 06:49:21;;;;;;;8.90;8.30;;;24.60;57.60;;;;;;20798;6816;123523;-75
2023/09/13 06:51:48;;;;;;;10.07;9.37;;;24.50;57.70;;;;;;20589;6816;306648;-75
2023/09/13 06:54:13;;;;;;;8.97;8.37;;;24.50;57.60;;;;;;20786;6816;117773;-76
2023/09/13 06:56:39;;;;;;;9.20;8.70;;;24.40;57.80;;;;;;20583;6816;294017;-76
2023/09/13 06:59:05;;;;;;;9.30;8.70;;;24.50;57.10;;;;;;20591;6816;278936;-76
2023/09/13 07:01:30;;;;;;;9.30;8.70;;;24.80;56.80;;;;;;20592;6816;278885;-74
2023/09/13 07:03:57;;;;;;;8.17;7.70;;;25.10;56.30;;;;;;20807;6816;117055;-75
2023/09/13 07:06:23;;;;;;;8.00;7.30;;;25.00;56.60;;;;;;20801;6816;117371;-77
2023/09/13 07:08:49;;;;;;;7.43;6.93;;;24.50;57.30;;;;;;20804;6816;117603;-78
2023/09/13 07:11:18;;;;;;;8.57;8.03;;;24.50;57.30;;;;;;20588;6816;280192;-77
2023/09/13 07:13:44;;;;;;;8.27;7.77;;;24.70;57.10;;;;;;20621;6816;306808;-79
2023/09/13 07:16:10;;;;;;;9.47;8.57;;;25.00;56.80;;;;;;20790;6816;118298;-79
2023/09/13 07:18:35;;;;;;;10.65;9.85;;;24.90;56.80;;;;;;20604;6814;344410;-76
2023/09/13 07:21:01;;;;;;;9.30;8.70;;;25.00;57.10;;;;;;20608;6815;277600;-77
2023/09/13 07:23:27;;;;;;;9.23;8.60;;;25.20;56.40;;;;;;20604;6815;295238;-78
2023/09/13 07:25:53;;;;;;;8.43;7.83;;;25.20;56.50;;;;;;20814;6816;117400;-79
2023/09/13 07:28:20;;;;;;;9.30;8.60;;;25.20;56.50;;;;;;20574;6816;306595;-77
2023/09/13 07:30:45;;;;;;;9.47;8.87;;;25.20;56.40;;;;;;20790;6816;118017;-77
2023/09/13 07:33:10;;;;;;;9.60;9.00;;;25.10;56.60;;;;;;20604;6816;306523;-76
2023/09/13 07:35:36;;;;;;;8.73;8.03;;;25.20;56.20;;;;;;20796;6816;119103;-77
2023/09/13 07:38:02;;;;;;;9.75;9.05;;;25.00;56.50;;;;;;20578;6816;295885;-77
2023/09/13 07:40:28;;;;;;;10.83;9.70;;;25.40;56.20;;;;;;20590;6816;307066;-77
2023/09/13 07:42:53;;;;;;;9.30;8.60;;;25.40;56.20;;;;;;20807;6816;117378;-77
2023/09/13 07:45:19;;;;;;;10.05;9.32;;;25.40;56.40;;;;;;20605;6816;336155;-77
2023/09/13 07:47:44;;;;;;;9.03;8.30;;;25.50;56.20;;;;;;20806;6816;117326;-76
2023/09/13 07:50:30;;;;;;;9.90;9.20;;;25.50;56.30;;;;;;20577;6816;311164;-76
2023/09/13 07:52:56;;;;;;;8.70;8.00;;;25.60;55.80;;;;;;20774;6816;117896;-77
2023/09/13 07:55:21;;;;;;;10.10;9.50;;;25.50;55.80;;;;;;20576;6816;307492;-77
2023/09/13 07:57:47;;;;;;;8.57;7.97;;;25.60;55.60;;;;;;20802;6816;117282;-76
2023/09/13 08:00:14;;;;;;;10.60;9.80;;;25.40;55.80;;;;;;20562;6816;307061;-76
2023/09/13 08:02:41;;;;;;;9.73;8.97;;;25.50;55.70;;;;;;20803;6816;117932;-76
2023/09/13 08:05:05;;;;;;;10.15;9.35;;;25.40;55.80;;;;;;20575;6816;336519;-76
2023/09/13 08:07:31;;;;;;;9.13;8.40;;;25.40;56.00;;;;;;20799;6816;117660;-76
2023/09/13 08:09:58;;;;;;;9.60;9.10;;;25.40;56.00;;;;;;20572;6816;336101;-79
2023/09/13 08:12:24;;;;;;;9.50;8.70;;;25.40;55.70;;;;;;20806;6816;117954;-77
2023/09/13 08:14:49;;;;;;;10.35;9.65;;;25.30;55.80;;;;;;20588;6816;336947;-77
2023/09/13 08:17:15;;;;;;;9.50;8.80;;;25.30;56.10;;;;;;20794;6816;123259;-77
2023/09/13 08:19:41;;;;;;;10.13;9.53;;;25.20;56.10;;;;;;20573;6816;277732;-76
2023/09/13 08:22:08;;;;;;;10.35;9.65;;;25.20;56.50;;;;;;20555;6816;337050;-76
2023/09/13 08:24:34;;;;;;;10.27;9.47;;;25.80;55.70;;;;;;20579;6816;279025;-76
2023/09/13 08:27:00;;;;;;;9.60;9.00;;;25.70;55.60;;;;;;20795;6816;117265;-76
2023/09/13 08:29:25;;;;;;;10.27;9.47;;;25.60;55.70;;;;;;20582;6816;307453;-76
2023/09/13 08:31:51;;;;;;;9.20;8.60;;;25.70;55.40;;;;;;20810;6814;117525;-76
2023/09/13 08:34:16;;;;;;;9.10;8.55;;;25.60;55.50;;;;;;20576;6815;290129;-76
2023/09/13 08:36:45;;;;;;;8.13;7.60;;;25.70;55.40;;;;;;20801;6816;117050;-76
2023/09/13 08:39:12;;;;;;;9.45;8.68;;;25.60;55.40;;;;;;20592;6816;308335;-78
2023/09/13 08:41:36;;;;;;;9.20;8.30;;;25.60;54.40;;;;;;20792;6816;118057;-78
2023/09/13 08:44:02;;;;;;;9.93;9.23;;;25.50;54.70;;;;;;20576;6816;277105;-77
2023/09/13 08:46:27;;;;;;;10.13;9.43;;;25.60;55.10;;;;;;20581;6816;306620;-76
2023/09/13 08:48:53;;;;;;;8.30;7.80;;;25.80;54.50;;;;;;20801;6816;117620;-77
2023/09/13 08:51:20;;;;;;;10.17;9.23;;;25.60;54.70;;;;;;20363;6816;311560;-77
2023/09/13 08:53:45;;;;;;;9.13;8.63;;;25.60;54.80;;;;;;20589;6842;117714;-77
2023/09/13 08:56:15;;;;;;;10.07;8.97;;;25.30;55.90;;;;;;20690;6842;121962;-76
2023/09/13 08:58:40;;;;;;;9.73;8.83;;;25.20;55.50;;;;;;20703;6842;121160;-76
2023/09/13 09:01:06;;;;;;;9.35;8.75;;;25.00;56.00;;;;;;20684;6842;121125;-77
2023/09/13 09:03:31;;;;;;;10.77;9.80;;;24.80;56.30;;;;;;20468;6840;279444;-77
2023/09/13 09:05:57;;;;;;;11.00;9.07;;;25.00;56.60;;;;;;20723;6840;117548;-77
2023/09/13 09:08:22;;;;;;;9.88;9.13;;;25.00;56.60;;;;;;20581;6840;278136;-76
2023/09/13 09:10:48;;;;;;;10.00;8.77;;;25.20;56.50;;;;;;20776;6840;122948;-76
2023/09/13 09:13:14;;;;;;;8.13;7.40;;;25.20;56.50;;;;;;20798;6840;116643;-75
2023/09/13 09:15:39;;;;;;;7.17;6.67;;;25.00;56.60;;;;;;20808;6840;73664;-76
2023/09/13 09:18:05;;;;;;;8.15;7.65;;;24.90;55.90;;;;;;20526;6840;279500;-77
2023/09/13 09:20:32;;;;;;;8.20;7.70;;;25.20;55.60;;;;;;20481;6840;281423;-80
2023/09/13 09:22:57;;;;;;;8.20;7.67;;;25.20;55.60;;;;;;20494;6840;280591;-77
2023/09/13 09:25:25;;;;;;;6.67;6.27;;;25.40;54.90;;;;;;20716;6840;118205;-76
2023/09/13 09:27:50;;;;;;;7.70;7.20;;;25.30;55.90;;;;;;20503;6840;309035;-76
2023/09/13 09:30:16;;;;;;;6.93;6.53;;;25.40;54.40;;;;;;20710;6840;117392;-76
2023/09/13 09:32:41;;;;;;;7.93;7.20;;;25.30;54.70;;;;;;20505;6840;279441;-77
2023/09/13 09:35:07;;;;;;;7.18;6.68;;;25.40;53.90;;;;;;20497;6840;285911;-76
2023/09/13 09:37:33;;;;;;;6.65;6.35;;;25.60;53.00;;;;;;20494;6840;337259;-77
2023/09/13 09:39:58;;;;;;;6.20;5.80;;;25.70;52.80;;;;;;20675;6840;119518;-77
2023/09/13 09:42:29;;;;;;;6.07;5.63;;;25.60;53.20;;;;;;20597;6841;117271;-77
2023/09/13 09:44:52;;;;;;;6.33;5.90;;;25.30;53.80;;;;;;20566;6823;284491;-77
2023/09/13 09:47:18;;;;;;;5.70;5.35;;;25.50;52.80;;;;;;20733;6838;117177;-77
2023/09/13 09:49:43;;;;;;;5.70;5.40;;;25.60;53.20;;;;;;20515;6838;281465;-77
2023/09/13 09:52:10;;;;;;;5.37;5.07;;;25.80;51.90;;;;;;20701;6838;118650;-77
2023/09/13 09:54:37;;;;;;;5.73;5.40;;;26.10;51.20;;;;;;20497;6838;308820;-77
2023/09/13 09:57:02;;;;;;;5.90;5.50;;;26.10;51.20;;;;;;20437;6856;278790;-77
2023/09/13 09:59:31;;;;;;;5.33;4.97;;;26.50;50.50;;;;;;20429;6866;309744;-77
2023/09/13 10:01:57;;;;;;;4.57;4.37;;;26.90;50.10;;;;;;20648;6866;117499;-80
2023/09/13 10:04:24;;;;;;;5.10;4.80;;;26.80;50.20;;;;;;20391;6840;316957;-78
2023/09/13 10:06:56;;;;;;;4.63;4.43;;;26.90;49.30;;;;;;20729;6840;118810;-77
2023/09/13 10:09:21;;;;;;;5.17;4.87;;;26.90;49.80;;;;;;20481;6851;285061;-77
2023/09/13 10:11:47;;;;;;;5.13;4.73;;;27.00;49.60;;;;;;20695;6851;120173;-83
2023/09/13 10:14:12;;;;;;;5.10;4.80;;;27.00;50.20;;;;;;20625;6854;117704;-78
2023/09/13 10:16:38;;;;;;;5.40;5.10;;;26.80;49.70;;;;;;20414;6854;309673;-77
2023/09/13 10:19:06;;;;;;;4.93;4.53;;;26.70;48.30;;;;;;20681;6857;117582;-75
2023/09/13 10:21:32;;;;;;;4.17;3.87;;;26.70;48.30;;;;;;20735;6829;118054;-75
2023/09/13 10:23:58;;;;;;;4.73;4.43;;;26.50;49.10;;;;;;20743;6830;117466;-76
2023/09/13 10:26:25;;;;;;;4.80;4.60;;;26.30;49.60;;;;;;20538;6830;315096;-74
2023/09/13 10:28:49;;;;;;;5.40;5.10;;;26.40;50.00;;;;;;20754;6830;117700;-74
2023/09/13 10:31:16;;;;;;;6.40;5.90;;;26.30;50.30;;;;;;20538;6830;283974;-74
2023/09/13 10:33:41;;;;;;;5.90;5.60;;;26.50;52.00;;;;;;20543;6830;278850;-72
2023/09/13 10:36:07;;;;;;;4.53;4.33;;;26.50;51.40;;;;;;20726;6830;117649;-73
2023/09/13 10:38:37;;;;;;;4.62;4.32;;;26.40;51.40;;;;;;20726;6830;117643;-77
2023/09/13 10:41:02;;;;;;;3.90;3.70;;;25.90;51.60;;;;;;19800;6830;331692;-77
2023/09/13 10:43:28;;;;;;;3.95;3.75;;;25.80;52.20;;;;;;20537;6830;280314;-75
2023/09/13 10:45:53;;;;;;;4.07;3.87;;;25.90;52.30;;;;;;20533;6830;288332;-73
2023/09/13 10:48:19;;;;;;;3.33;3.20;;;26.00;52.30;;;;;;20738;6830;117807;-74
2023/09/13 10:50:45;;;;;;;4.60;4.30;;;25.70;52.50;;;;;;20521;6830;277737;-73
2023/09/13 10:53:11;;;;;;;4.03;3.83;;;25.20;55.20;;;;;;20741;6828;117080;-76
2023/09/13 10:55:36;;;;;;;4.10;3.90;;;25.10;54.50;;;;;;20541;6829;307943;-73
2023/09/13 10:58:03;;;;;;;4.27;4.00;;;25.00;56.00;;;;;;20519;6830;278032;-74
2023/09/13 11:00:31;;;;;;;4.17;3.97;;;25.10;55.50;;;;;;20535;6830;308240;-74
2023/09/13 11:02:53;;;;;;;4.37;4.07;;;25.20;55.10;;;;;;20525;6830;284623;-75
2023/09/13 11:05:22;;;;;;;4.13;3.93;;;25.30;55.80;;;;;;20540;6830;309794;-74
2023/09/13 11:07:49;;;;;;;3.70;3.50;;;25.10;55.80;;;;;;20762;6830;119231;-76
2023/09/13 11:10:14;;;;;;;4.20;4.00;;;25.10;55.10;;;;;;20529;6830;307603;-76
2023/09/13 11:12:39;;;;;;;3.47;3.27;;;25.10;55.70;;;;;;20759;6830;117803;-77
2023/09/13 11:15:12;;;;;;;3.95;3.75;;;25.00;55.80;;;;;;20539;6830;279447;-75
2023/09/13 11:17:38;;;;;;;4.03;3.80;;;25.10;56.60;;;;;;20761;6830;118229;-74
2023/09/13 11:20:24;;;;;;;4.10;3.90;;;25.00;56.10;;;;;;20524;6830;315495;-75
2023/09/13 11:22:59;;;;;;;4.00;3.80;;;25.20;54.70;;;;;;20750;6830;117270;-75
2023/09/13 11:25:25;;;;;;;3.97;3.77;;;25.00;55.40;;;;;;20690;6830;120156;-77
2023/09/13 11:27:50;;;;;;;3.73;3.43;;;25.00;55.40;;;;;;20727;6830;117136;-78
2023/09/13 11:30:17;;;;;;;4.17;3.87;;;24.90;55.60;;;;;;20710;6830;121151;-77
2023/09/13 11:32:43;;;;;;;4.72;4.50;;;24.90;55.60;;;;;;20447;6830;278067;-76
2023/09/13 11:35:08;;;;;;;4.33;4.13;;;25.20;56.20;;;;;;20535;6830;311388;-76
2023/09/13 11:37:33;;;;;;;4.00;3.80;;;25.60;54.70;;;;;;20753;6830;117564;-77
2023/09/13 11:40:10;;;;;;;4.80;4.50;;;25.70;54.20;;;;;;20528;6830;277612;-76
2023/09/13 11:42:34;;;;;;;4.65;4.45;;;25.80;53.40;;;;;;20490;6830;278520;-76
2023/09/13 11:45:00;;;;;;;4.47;4.27;;;26.10;52.50;;;;;;20763;6830;118021;-75
2023/09/13 11:47:25;;;;;;;4.70;4.40;;;26.10;53.10;;;;;;20766;6830;117648;-76
2023/09/13 11:49:54;;;;;;;4.57;4.20;;;25.80;53.50;;;;;;20532;6830;278834;-76
2023/09/13 11:52:19;;;;;;;4.30;4.10;;;25.90;52.40;;;;;;20527;6830;307522;-74
2023/09/13 11:54:52;;;;;;;4.87;4.57;;;26.20;51.40;;;;;;20756;6830;119747;-76
2023/09/13 11:57:17;;;;;;;3.83;3.63;;;26.10;51.50;;;;;;20531;6830;307913;-75
2023/09/13 11:59:43;;;;;;;4.00;3.70;;;26.20;50.40;;;;;;20751;6830;123075;-76
2023/09/13 12:02:28;;;;;;;4.25;4.05;;;26.20;50.90;;;;;;20498;6830;312676;-76
2023/09/13 12:04:55;;;;;;;4.13;3.93;;;26.40;51.20;;;;;;20545;6828;293343;-76
2023/09/13 12:07:24;;;;;;;3.90;3.70;;;26.70;50.50;;;;;;20547;6829;307562;-76
2023/09/13 12:10:05;;;;;;;4.10;3.90;;;27.00;48.50;;;;;;20430;6830;294257;-76
2023/09/13 12:12:43;;;;;;;3.80;3.60;;;27.20;49.30;;;;;;20507;6830;307258;-76
2023/09/13 12:15:16;;;;;;;3.63;3.43;;;27.50;49.90;;;;;;20480;6830;308084;-75
2023/09/13 12:17:44;;;;;;;3.80;3.60;;;27.70;46.40;;;;;;20273;6830;285359;-75
2023/09/13 12:20:14;;;;;;;3.83;3.62;;;27.90;46.90;;;;;;20416;6830;284803;-76
2023/09/13 12:22:47;;;;;;;3.47;3.37;;;28.10;45.70;;;;;;20529;6830;308398;-78
2023/09/13 12:25:16;;;;;;;4.43;3.10;;;28.10;45.30;;;;;;20741;6830;117389;-78
2023/09/13 12:27:46;;;;;;;3.40;3.20;;;27.90;46.00;;;;;;20750;6830;66334;-77
2023/09/13 12:30:19;;;;;;;3.17;2.93;;;27.50;47.10;;;;;;20700;6830;117950;-77
2023/09/13 12:32:51;;;;;;;3.40;3.20;;;27.30;47.90;;;;;;20733;6820;114090;-77